Time;durP1;ratioP1;P1;durP2;ratioP2;P2;SDS_P1;SDS_P2;PMS_P1;PMS_P2;Temp;Humidity;BMP_temperature;BMP_pressure;BME280_temperature;BME280_humidity;BME280_pressure;Samples;Min_cycle;Max_cycle;Signal;HPM_P1;HPM_P2
2022/02/01 00:02:23;;;;;;;1.55;1.40;;;;;;;2.85;80.57;96481.84;5076455;28;20053;-81
2022/02/01 00:05:01;;;;;;;1.55;1.45;;;;;;;2.85;80.12;96475.91;5076616;28;20051;-80
2022/02/01 00:07:39;;;;;;;1.90;1.65;;;;;;;2.85;80.58;96483.63;5079473;28;20049;-79
2022/02/01 00:10:13;;;;;;;1.60;1.50;;;;;;;2.86;80.12;96483.50;5092740;28;20056;-80
2022/02/01 00:12:51;;;;;;;1.98;1.83;;;;;;;2.88;80.59;96485.94;5082517;28;20052;-78
2022/02/01 00:18:20;;;;;;;2.58;1.63;;;;;;;2.89;80.20;96493.53;5065996;28;20498;-78
2022/02/01 00:34:58;;;;;;;3.90;2.17;;;;;;;2.89;80.17;96496.09;5075919;28;20052;-79
2022/02/01 00:37:27;;;;;;;5.72;2.35;;;;;;;2.91;80.62;96495.97;5075742;28;20056;-79
2022/02/01 00:39:58;;;;;;;3.60;2.45;;;;;;;2.93;80.68;96500.97;5075725;28;20055;-79
2022/02/01 00:42:26;;;;;;;4.53;2.75;;;;;;;2.91;80.32;96495.97;5076663;28;20506;-79
2022/02/01 00:44:53;;;;;;;3.92;2.78;;;;;;;2.93;80.44;96509.53;5077648;28;20060;-79
2022/02/01 00:47:22;;;;;;;3.17;2.90;;;;;;;2.94;80.16;96521.44;5076724;28;20045;-79
2022/02/01 00:49:50;;;;;;;3.40;2.78;;;;;;;2.96;80.76;96518.75;5077422;28;20502;-79
2022/02/01 00:52:17;;;;;;;4.85;3.10;;;;;;;2.97;80.26;96523.75;5077427;28;20048;-80
2022/02/01 00:54:45;;;;;;;3.38;3.05;;;;;;;2.96;80.47;96532.44;5076677;28;20057;-79
2022/02/01 00:57:13;;;;;;;3.42;2.65;;;;;;;2.97;80.14;96533.25;5076892;28;20048;-79
2022/02/01 00:59:42;;;;;;;3.88;3.10;;;;;;;2.95;79.99;96540.28;5076764;28;20053;-79
2022/02/01 01:02:09;;;;;;;5.78;3.90;;;;;;;2.96;80.38;96541.94;5076143;28;20045;-81
2022/02/01 01:04:39;;;;;;;3.17;2.83;;;;;;;2.95;79.81;96545.44;5076340;28;20052;-79
2022/02/01 01:07:06;;;;;;;4.88;3.65;;;;;;;2.97;80.12;96559.81;5076241;28;20054;-80
2022/02/01 01:09:34;;;;;;;4.70;3.92;;;;;;;3.01;80.30;96573.25;5076503;28;20548;-79
2022/02/01 01:12:01;;;;;;;4.20;3.67;;;;;;;3.01;80.28;96573.25;5076142;28;20057;-80
2022/02/01 01:14:57;;;;;;;6.00;3.45;;;;;;;3.02;80.37;96588.59;5076699;28;20053;-79
2022/02/01 01:17:53;;;;;;;4.90;3.65;;;;;;;3.04;80.39;96584.13;5074487;28;20049;-78
2022/02/01 01:45:16;;;;;;;5.05;3.28;;;;;;;3.02;79.50;96641.91;5075681;28;20053;-80
2022/02/01 01:53:19;;;;;;;4.13;3.30;;;;;;;3.03;79.04;96651.25;5074665;28;20052;-78
2022/02/01 01:55:49;;;;;;;4.53;3.22;;;;;;;3.03;78.89;96652.06;5074010;28;20070;-80
2022/02/01 01:58:18;;;;;;;3.78;3.10;;;;;;;3.03;79.15;96661.56;5074756;28;20044;-79
2022/02/01 02:01:03;;;;;;;3.22;2.92;;;;;;;3.02;78.57;96663.31;5075000;28;20044;-79
2022/02/01 02:03:30;;;;;;;5.35;3.33;;;;;;;3.04;78.27;96665.75;5074339;28;20044;-78
2022/02/01 02:05:58;;;;;;;3.00;2.70;;;;;;;3.06;78.37;96671.59;5075588;28;20051;-78
2022/02/01 02:08:29;;;;;;;3.78;2.85;;;;;;;3.08;78.81;96667.13;5074705;28;20040;-79
2022/02/01 02:11:02;;;;;;;3.63;2.63;;;;;;;3.11;78.04;96674.59;5074544;28;20071;-79
2022/02/01 02:16:14;;;;;;;4.68;3.03;;;;;;;3.12;78.07;96672.84;5075503;28;20049;-81
2022/02/01 02:18:42;;;;;;;3.15;2.70;;;;;;;3.12;78.04;96667.69;5076389;28;20072;-79
2022/02/01 02:21:11;;;;;;;3.85;3.13;;;;;;;3.09;77.08;96676.50;5074906;28;20049;-78
2022/02/01 02:23:39;;;;;;;4.45;3.00;;;;;;;3.07;77.89;96681.78;5075164;28;20426;-79
2022/02/01 02:26:08;;;;;;;4.10;2.90;;;;;;;3.07;77.92;96675.81;5075056;28;20308;-77
2022/02/01 02:28:35;;;;;;;4.65;3.40;;;;;;;3.09;77.92;96673.91;5074977;28;20520;-78
2022/02/01 02:31:03;;;;;;;4.30;3.42;;;;;;;3.08;77.64;96674.84;5074730;28;20126;-80
2022/02/01 02:33:32;;;;;;;3.83;3.00;;;;;;;3.05;77.35;96672.56;5074550;28;20052;-78
2022/02/01 02:36:04;;;;;;;5.25;3.30;;;;;;;3.05;77.43;96664.81;5074257;28;20066;-78
2022/02/01 02:38:39;;;;;;;5.32;3.60;;;;;;;3.06;78.02;96674.16;5074418;28;20105;-78
2022/02/01 02:46:39;;;;;;;5.97;3.50;;;;;;;3.05;77.89;96708.63;5073057;28;20048;-78
2022/02/01 02:49:07;;;;;;;4.40;3.58;;;;;;;3.03;78.13;96706.19;5074006;28;20078;-79
2022/02/01 02:51:35;;;;;;;4.28;3.20;;;;;;;3.03;78.05;96707.94;5073298;28;20131;-77
2022/02/01 02:54:06;;;;;;;3.30;2.92;;;;;;;3.02;77.41;96698.59;5073788;28;20049;-78
2022/02/01 02:56:34;;;;;;;5.28;3.47;;;;;;;3.01;77.76;96689.22;5073929;28;20068;-79
2022/02/01 02:59:01;;;;;;;3.92;3.13;;;;;;;3.02;78.17;96690.88;5073914;28;20063;-77
2022/02/01 03:01:29;;;;;;;3.85;3.30;;;;;;;3.02;78.06;96699.41;5072943;28;20060;-77
2022/02/01 03:03:57;;;;;;;6.65;3.60;;;;;;;3.02;77.88;96701.97;5073124;28;20072;-76
2022/02/01 03:06:24;;;;;;;4.32;3.17;;;;;;;3.05;78.57;96709.44;5075717;28;20056;-76
2022/02/01 03:08:51;;;;;;;4.45;3.40;;;;;;;3.06;78.78;96711.09;5076265;28;20495;-78
2022/02/01 03:11:20;;;;;;;4.63;3.70;;;;;;;3.08;78.40;96710.94;5076747;28;20422;-76
2022/02/01 03:13:53;;;;;;;4.90;3.80;;;;;;;3.07;78.25;96711.91;5076439;28;20123;-77
2022/02/01 03:16:49;;;;;;;5.47;3.75;;;;;;;3.06;78.61;96723.13;5076208;28;20052;-78
2022/02/01 03:22:02;;;;;;;8.20;4.20;;;;;;;3.08;78.44;96734.97;5075152;28;20472;-79
2022/02/01 03:24:30;;;;;;;4.93;3.60;;;;;;;3.07;78.01;96717.84;5076283;28;20078;-79
2022/02/01 03:26:59;;;;;;;4.22;3.40;;;;;;;3.09;78.57;96731.44;5076662;28;20052;-79
2022/02/01 03:29:26;;;;;;;5.55;4.03;;;;;;;3.11;78.46;96739.03;5077827;28;20045;-80
2022/02/01 03:31:54;;;;;;;5.25;4.10;;;;;;;3.10;78.51;96747.69;5078423;28;20048;-79
2022/02/01 03:34:22;;;;;;;4.95;4.15;;;;;;;3.09;78.44;96743.50;5077665;28;20056;-78
2022/02/01 03:36:50;;;;;;;4.47;3.10;;;;;;;3.07;78.13;96738.47;5077490;28;20052;-80
2022/02/01 03:39:17;;;;;;;4.85;3.45;;;;;;;3.03;78.51;96736.28;5076918;28;20534;-79
2022/02/01 03:41:45;;;;;;;5.00;3.20;;;;;;;3.02;78.26;96730.34;5078141;28;20060;-78
2022/02/01 03:44:14;;;;;;;3.10;2.67;;;;;;;3.00;78.79;96741.72;5078078;28;20441;-78
2022/02/01 03:46:46;;;;;;;2.28;2.08;;;;;;;2.99;78.66;96751.19;5077351;28;20428;-77
2022/02/01 03:49:14;;;;;;;2.03;1.83;;;;;;;2.99;78.79;96755.53;5077796;28;20041;-82
2022/02/01 03:51:41;;;;;;;2.30;2.10;;;;;;;2.97;79.19;96753.09;5077082;28;20052;-80
2022/02/01 03:54:09;;;;;;;1.45;1.27;;;;;;;2.97;79.11;96744.53;5089662;28;20048;-83
2022/02/01 03:56:36;;;;;;;1.30;1.20;;;;;;;2.95;78.79;96749.00;5090507;28;20048;-81
2022/02/01 03:59:04;;;;;;;1.88;1.10;;;;;;;2.95;79.20;96759.31;5084967;28;20047;-79
2022/02/01 04:01:32;;;;;;;2.22;1.20;;;;;;;2.95;79.67;96759.31;5078958;28;20067;-78
2022/02/01 04:04:00;;;;;;;1.73;1.30;;;;;;;2.96;79.45;96772.06;5077930;28;20056;-78
2022/02/01 04:06:28;;;;;;;2.22;1.25;;;;;;;2.95;79.32;96773.03;5076784;28;20048;-77
2022/02/01 04:08:55;;;;;;;4.50;1.55;;;;;;;2.98;78.81;96790.00;5087679;28;20147;-80
2022/02/01 04:11:23;;;;;;;1.25;1.15;;;;;;;2.97;79.48;96783.19;5083001;28;20048;-78
2022/02/01 04:13:50;;;;;;;1.48;1.20;;;;;;;2.97;79.59;96784.00;5076276;28;20052;-78
2022/02/01 04:16:18;;;;;;;1.40;1.20;;;;;;;2.94;79.56;96793.78;5076952;28;20063;-77
2022/02/01 04:18:47;;;;;;;2.13;1.10;;;;;;;2.91;78.90;96806.91;5076032;28;20044;-82
2022/02/01 04:21:14;;;;;;;2.15;1.20;;;;;;;2.87;79.24;96803.78;5077987;28;20045;-78
2022/02/01 04:23:42;;;;;;;1.83;1.67;;;;;;;2.84;79.60;96815.16;5075485;28;20052;-77
2022/02/01 04:26:09;;;;;;;4.13;1.73;;;;;;;2.82;79.70;96827.34;5075055;28;20135;-76
2022/02/01 04:28:37;;;;;;;2.17;1.83;;;;;;;2.80;79.75;96821.50;5074920;28;20044;-78
2022/02/01 04:31:04;;;;;;;2.80;1.90;;;;;;;2.78;79.34;96823.41;5074923;28;20044;-79
2022/02/01 04:33:32;;;;;;;3.63;2.10;;;;;;;2.78;79.68;96831.13;5075433;28;20499;-77
2022/02/01 04:36:00;;;;;;;4.50;2.30;;;;;;;2.78;79.57;96815.66;5075178;28;20502;-78
2022/02/01 04:38:28;;;;;;;2.78;2.28;;;;;;;2.76;79.91;96809.81;5075094;28;20049;-78
2022/02/01 04:40:55;;;;;;;4.80;2.25;;;;;;;2.75;79.96;96818.47;5075305;28;20055;-78
2022/02/01 04:43:23;;;;;;;4.03;2.70;;;;;;;2.72;79.60;96818.75;5074962;28;20064;-77
2022/02/01 04:45:51;;;;;;;3.13;2.38;;;;;;;2.71;79.90;96818.88;5074446;28;20048;-76
2022/02/01 04:48:19;;;;;;;6.88;2.75;;;;;;;2.71;79.93;96827.41;5075076;28;20048;-78
2022/02/01 04:50:46;;;;;;;6.60;2.80;;;;;;;2.74;80.03;96834.91;5075165;28;20052;-79
2022/02/01 04:53:15;;;;;;;6.57;2.33;;;;;;;2.74;80.03;96827.16;5074718;28;20055;-78
2022/02/01 04:55:54;;;;;;;4.28;2.55;;;;;;;2.74;79.76;96834.91;5074802;28;20053;-76
2022/02/01 04:58:22;;;;;;;6.32;3.00;;;;;;;2.76;80.26;96827.84;5075361;28;20410;-76
2022/02/01 05:00:50;;;;;;;6.25;2.90;;;;;;;2.77;80.14;96823.50;5075264;28;20052;-77
2022/02/01 05:03:18;;;;;;;8.07;3.40;;;;;;;2.76;80.21;96827.84;5075263;28;20127;-77
2022/02/01 05:05:46;;;;;;;9.60;4.40;;;;;;;2.74;79.65;96828.94;5075086;28;20143;-76
2022/02/01 05:08:15;;;;;;;10.40;4.32;;;;;;;2.70;79.52;96843.00;5073754;28;20064;-77
2022/02/01 05:10:42;;;;;;;11.85;4.28;;;;;;;2.65;79.93;96848.53;5074457;28;20048;-77
2022/02/01 05:16:07;;;;;;;15.52;5.68;;;;;;;2.59;80.10;96873.03;5071026;28;20505;-78
2022/02/01 05:18:38;;;;;;;16.20;5.72;;;;;;;2.58;79.79;96875.72;5074492;28;20056;-77
2022/02/01 05:21:10;;;;;;;19.35;5.63;;;;;;;2.55;80.03;96881.94;5074303;28;20262;-77
2022/02/01 05:23:39;;;;;;;17.70;5.70;;;;;;;2.54;79.85;96884.66;5074724;28;20421;-77
2022/02/01 05:26:07;;;;;;;25.60;6.78;;;;;;;2.52;79.87;96886.53;5074237;28;20139;-76
2022/02/01 05:28:36;;;;;;;16.08;5.53;;;;;;;2.49;79.51;96887.59;5074679;28;20048;-78
2022/02/01 05:31:04;;;;;;;16.23;5.68;;;;;;;2.48;79.53;96886.78;5074655;28;20052;-77
2022/02/01 05:33:32;;;;;;;17.02;5.72;;;;;;;2.48;79.13;96891.09;5074253;28;20060;-79
2022/02/01 05:36:02;;;;;;;17.38;5.70;;;;;;;2.48;79.30;96902.22;5073936;28;20064;-77
2022/02/01 05:38:30;;;;;;;18.92;5.10;;;;;;;2.47;79.13;96905.75;5074355;28;20509;-79
2022/02/01 05:40:59;;;;;;;16.33;5.72;;;;;;;2.44;79.02;96908.56;5074138;28;20048;-77
2022/02/01 05:43:28;;;;;;;30.25;5.55;;;;;;;2.42;78.82;96918.16;5073972;28;20053;-77
2022/02/01 05:45:58;;;;;;;20.52;5.25;;;;;;;2.42;78.97;96918.16;5073904;28;20053;-79
2022/02/01 05:48:26;;;;;;;23.05;4.90;;;;;;;2.43;79.02;96906.13;5074634;28;20434;-77
2022/02/01 05:50:56;;;;;;;20.58;5.85;;;;;;;2.44;78.66;96908.56;5074588;28;20417;-78
2022/02/01 05:53:25;;;;;;;20.05;5.63;;;;;;;2.42;78.83;96907.84;5073971;28;20067;-77
2022/02/01 05:55:53;;;;;;;77.93;38.33;;;;;;;2.43;78.81;96903.56;5073874;28;20068;-77
2022/02/01 05:58:22;;;;;;;16.85;6.18;;;;;;;2.42;78.61;96901.91;5074275;28;20056;-80
2022/02/01 06:00:50;;;;;;;14.27;6.10;;;;;;;2.40;78.24;96894.28;5073950;28;20049;-79
2022/02/01 06:03:17;;;;;;;14.68;5.03;;;;;;;2.41;78.60;96906.25;5074502;28;20048;-79
2022/02/01 06:05:45;;;;;;;19.88;6.22;;;;;;;2.41;78.31;96895.94;5074456;28;20056;-77
2022/02/01 06:08:13;;;;;;;25.33;5.57;;;;;;;2.42;78.43;96913.00;5073133;28;20275;-79
2022/02/01 06:10:41;;;;;;;21.10;5.75;;;;;;;2.41;77.74;96921.69;5073161;28;20048;-77
2022/02/01 06:13:09;;;;;;;15.95;4.93;;;;;;;2.42;77.86;96917.34;5073480;28;20101;-77
2022/02/01 06:15:38;;;;;;;17.10;4.88;;;;;;;2.42;77.62;96933.59;5073712;28;20056;-81
2022/02/01 06:18:05;;;;;;;10.25;4.07;;;;;;;2.42;77.24;96928.44;5073256;28;20418;-77
2022/02/01 06:20:33;;;;;;;18.75;4.43;;;;;;;2.41;77.74;96937.13;5073928;28;20044;-79
2022/02/01 06:23:01;;;;;;;15.45;4.07;;;;;;;2.40;77.64;96935.47;5074349;28;20052;-78
2022/02/01 06:25:47;;;;;;;18.83;4.88;;;;;;;2.40;77.80;96932.09;5072861;28;20391;-78
2022/02/01 06:28:16;;;;;;;11.50;3.55;;;;;;;2.39;77.87;96946.72;5074311;28;20052;-79
2022/02/01 06:30:45;;;;;;;19.50;5.20;;;;;;;2.38;77.81;96952.81;5073507;28;20097;-78
2022/02/01 06:33:13;;;;;;;16.15;5.80;;;;;;;2.36;77.52;96954.72;5072315;28;20494;-77
2022/02/01 06:35:41;;;;;;;18.13;5.72;;;;;;;2.34;77.76;96966.88;5072353;28;20515;-79
2022/02/01 06:38:09;;;;;;;17.52;4.55;;;;;;;2.29;77.27;96974.13;5067466;28;20505;-77
2022/02/01 06:40:38;;;;;;;25.38;5.15;;;;;;;2.28;77.68;96976.84;5073681;28;20044;-79
2022/02/01 06:43:05;;;;;;;23.23;4.20;;;;;;;2.26;77.57;96977.78;5076157;28;20456;-78
2022/02/01 06:45:33;;;;;;;16.27;4.57;;;;;;;2.23;77.37;96972.88;5075756;28;20048;-78
2022/02/01 06:48:02;;;;;;;14.88;4.60;;;;;;;2.24;77.78;96968.53;5075633;28;20045;-76
2022/02/01 06:50:30;;;;;;;19.60;5.55;;;;;;;2.23;77.90;96990.06;5075386;28;20129;-76
2022/02/01 06:52:58;;;;;;;11.50;3.42;;;;;;;2.19;76.95;97004.13;5075422;28;20763;-79
2022/02/01 06:55:43;;;;;;;16.98;5.10;;;;;;;2.17;77.47;97011.97;5075471;28;20055;-76
2022/02/01 06:58:12;;;;;;;16.98;3.95;;;;;;;2.15;77.46;97018.16;5075733;28;20052;-78
2022/02/01 07:00:40;;;;;;;15.93;4.38;;;;;;;2.15;77.53;97007.88;5075710;28;20055;-77
2022/02/01 07:03:09;;;;;;;15.32;3.83;;;;;;;2.16;77.19;97015.47;5067284;28;20143;-78
2022/02/01 07:05:37;;;;;;;16.25;5.10;;;;;;;2.19;77.88;97014.44;5075722;28;20800;-77
2022/02/01 07:08:06;;;;;;;13.38;3.92;;;;;;;2.24;78.19;97025.16;5076000;28;20053;-76
2022/02/01 07:10:33;;;;;;;16.98;4.22;;;;;;;2.30;77.93;97031.63;5075677;28;20044;-77
2022/02/01 07:13:01;;;;;;;18.73;4.53;;;;;;;2.36;78.21;97037.09;5076003;28;20049;-77
2022/02/01 07:15:28;;;;;;;21.88;4.63;;;;;;;2.43;78.35;97048.53;5075912;28;20052;-75
2022/02/01 07:17:57;;;;;;;15.00;4.05;;;;;;;2.48;78.15;97061.88;5075489;28;20053;-79
2022/02/01 07:20:26;;;;;;;16.85;4.45;;;;;;;2.53;78.04;97065.84;5075943;28;20075;-78
2022/02/01 07:22:54;;;;;;;10.80;3.45;;;;;;;2.53;77.58;97056.34;5076248;28;20131;-78
2022/02/01 07:25:28;;;;;;;14.05;3.60;;;;;;;2.56;78.17;97068.16;5075635;28;20052;-76
2022/02/01 07:27:57;;;;;;;15.23;5.28;;;;;;;2.58;77.56;97059.41;5075164;28;20048;-77
2022/02/01 07:30:25;;;;;;;16.13;3.85;;;;;;;2.60;77.30;97070.41;5075338;28;20071;-77
2022/02/01 07:32:55;;;;;;;12.18;3.63;;;;;;;2.61;77.29;97055.78;5075955;28;20044;-77
2022/02/01 07:35:25;;;;;;;17.48;3.58;;;;;;;2.63;77.18;97046.16;5077152;28;20048;-78
2022/02/01 07:37:54;;;;;;;12.55;3.10;;;;;;;2.63;76.14;97030.72;5076606;28;20048;-76
2022/02/01 07:40:23;;;;;;;12.23;3.65;;;;;;;2.61;76.15;97030.00;5076870;28;20395;-78
2022/02/01 07:42:51;;;;;;;17.42;4.10;;;;;;;2.60;76.00;97042.09;5077982;28;20048;-77
2022/02/01 07:45:23;;;;;;;12.98;3.60;;;;;;;2.60;75.84;97041.25;5079260;28;20057;-78
2022/02/01 07:47:51;;;;;;;13.95;2.40;;;;;;;2.59;75.17;97052.50;5077455;28;20056;-78
2022/02/01 07:50:18;;;;;;;15.23;3.35;;;;;;;2.58;75.30;97054.25;5075448;28;20056;-79
2022/02/01 07:52:46;;;;;;;13.65;3.40;;;;;;;2.59;75.47;97053.31;5073659;28;20052;-76
2022/02/01 07:55:15;;;;;;;12.63;5.50;;;;;;;2.60;75.77;97065.25;5076097;28;20048;-78
2022/02/01 07:57:42;;;;;;;20.60;5.43;;;;;;;2.60;75.25;97064.41;5076028;28;20040;-78
2022/02/01 08:00:11;;;;;;;20.60;6.90;;;;;;;2.60;75.80;97069.56;5075851;28;20051;-82
2022/02/01 08:02:39;;;;;;;15.88;4.43;;;;;;;2.60;75.58;97054.13;5077609;28;20052;-78
2022/02/01 08:05:17;;;;;;;21.98;5.90;;;;;;;2.60;76.22;97051.53;5076383;28;20072;-78
2022/02/01 08:07:45;;;;;;;17.35;3.80;;;;;;;2.56;74.96;97047.56;5075927;28;20053;-77
2022/02/01 08:10:15;;;;;;;10.75;3.20;;;;;;;2.54;75.15;97044.31;5074355;28;20384;-75
2022/02/01 08:18:46;;;;;;;18.20;3.60;;;;;;;2.46;75.28;97058.59;4955495;29;20087;-78
2022/02/01 08:21:22;;;;;;;12.63;3.40;;;;;;;2.47;75.12;97054.25;5008702;28;20076;-82
2022/02/01 08:23:49;;;;;;;10.98;3.00;;;;;;;2.45;74.68;97064.69;5042232;28;20519;-80
2022/02/01 08:26:17;;;;;;;14.32;3.17;;;;;;;2.47;75.17;97070.56;5041520;28;20076;-83
2022/02/01 08:28:48;;;;;;;9.90;2.75;;;;;;;2.48;75.01;97071.34;5045008;28;20057;-80
2022/02/01 08:31:35;;;;;;;10.95;3.00;;;;;;;2.51;75.30;97060.00;5048724;28;20478;-84
2022/02/01 08:34:03;;;;;;;13.88;2.67;;;;;;;2.54;75.83;97070.88;5043797;28;20053;-79
2022/02/01 08:36:30;;;;;;;15.43;3.15;;;;;;;2.57;75.19;97091.25;5036656;28;20055;-81
2022/02/01 08:38:58;;;;;;;10.70;2.55;;;;;;;2.59;75.15;97081.63;5033961;28;20543;-76
2022/02/01 08:41:26;;;;;;;13.68;3.92;;;;;;;2.58;74.99;97087.75;5034974;28;20050;-76
2022/02/01 08:43:55;;;;;;;8.68;2.92;;;;;;;2.58;74.21;97099.78;5034968;28;20057;-79
2022/02/01 08:46:23;;;;;;;9.82;3.60;;;;;;;2.60;74.21;97096.16;5033750;28;20492;-79
2022/02/01 08:48:51;;;;;;;7.05;1.88;;;;;;;2.60;73.65;97085.03;5034636;28;20052;-76
2022/02/01 08:51:23;;;;;;;7.43;2.15;;;;;;;2.61;74.35;97073.81;5036608;28;20045;-79
2022/02/01 08:53:56;;;;;;;14.05;3.55;;;;;;;2.64;74.24;97060.66;5049807;28;20056;-77
2022/02/01 08:59:28;;;;;;;7.18;2.63;;;;;;;2.78;73.73;97063.00;5026338;28;20114;-76
2022/02/01 09:01:56;;;;;;;10.82;4.13;;;;;;;2.90;73.41;97061.19;5040870;28;20053;-77
2022/02/01 09:04:24;;;;;;;11.27;3.00;;;;;;;2.99;72.90;97062.19;5033310;28;20142;-75
2022/02/01 09:06:52;;;;;;;9.00;1.90;;;;;;;3.03;72.54;97050.72;5033317;28;20396;-77
2022/02/01 09:09:20;;;;;;;10.77;2.00;;;;;;;3.05;73.18;97065.09;5033289;28;20065;-76
2022/02/01 09:11:48;;;;;;;11.77;3.45;;;;;;;3.07;72.66;97060.66;5033145;28;20045;-76
2022/02/01 09:14:17;;;;;;;6.20;2.20;;;;;;;3.08;72.09;97059.72;5033366;28;20052;-75
2022/02/01 09:16:47;;;;;;;7.32;2.13;;;;;;;3.06;71.79;97069.34;5039857;28;20060;-74
2022/02/01 09:19:15;;;;;;;9.43;2.60;;;;;;;3.08;73.31;97058.88;5053083;28;20162;-75
2022/02/01 09:21:43;;;;;;;7.97;2.13;;;;;;;3.11;72.45;97063.81;5053115;28;20491;-76
2022/02/01 09:24:11;;;;;;;9.23;2.65;;;;;;;3.13;72.24;97066.25;5053028;28;20430;-77
2022/02/01 09:26:39;;;;;;;11.68;2.40;;;;;;;3.17;71.32;97067.63;5052665;28;20111;-76
2022/02/01 09:29:17;;;;;;;11.13;2.72;;;;;;;3.22;72.16;97052.63;5052526;28;20651;-74
2022/02/01 09:31:47;;;;;;;9.98;2.45;;;;;;;3.26;71.33;97059.19;5053533;28;20041;-76
2022/02/01 09:34:14;;;;;;;12.18;3.28;;;;;;;3.29;71.63;97072.63;5053747;28;20044;-76
2022/02/01 09:36:47;;;;;;;9.18;2.55;;;;;;;3.32;71.40;97081.84;5052327;28;20136;-76
2022/02/01 09:39:14;;;;;;;11.25;2.38;;;;;;;3.30;70.95;97068.28;5052592;28;20056;-75
2022/02/01 09:41:42;;;;;;;8.48;1.98;;;;;;;3.28;71.35;97059.88;5052847;28;20049;-75
2022/02/01 09:44:11;;;;;;;10.80;2.20;;;;;;;3.28;72.34;97050.38;5052903;28;20060;-77
2022/02/01 09:46:39;;;;;;;11.98;3.10;;;;;;;3.28;72.44;97045.22;5052444;28;20067;-75
2022/02/01 09:49:15;;;;;;;9.02;2.40;;;;;;;3.28;71.98;97034.09;5052435;28;20056;-75
2022/02/01 09:51:42;;;;;;;10.75;2.40;;;;;;;3.32;72.18;97039.78;5052849;28;20048;-75
2022/02/01 09:54:21;;;;;;;6.45;2.72;;;;;;;3.34;72.37;97048.22;5052500;28;20400;-75
2022/02/01 09:56:50;;;;;;;5.47;2.25;;;;;;;3.36;72.52;97051.50;5052624;28;20056;-75
2022/02/01 09:59:19;;;;;;;8.18;2.28;;;;;;;3.37;71.69;97045.38;5072527;28;20059;-75
2022/02/01 10:01:54;;;;;;;8.20;2.78;;;;;;;3.37;72.44;97061.69;5072261;28;20520;-75
2022/02/01 10:04:28;;;;;;;10.68;2.95;;;;;;;3.35;71.56;97057.63;5072319;28;20044;-77
2022/02/01 10:07:06;;;;;;;9.75;2.40;;;;;;;3.33;72.49;97051.75;5072312;28;20048;-76
2022/02/01 10:09:35;;;;;;;11.27;3.20;;;;;;;3.34;72.31;97046.47;5072491;28;20066;-75
2022/02/01 10:12:02;;;;;;;9.43;2.33;;;;;;;3.39;72.35;97046.06;5071931;28;20044;-75
2022/02/01 10:14:40;;;;;;;11.23;2.30;;;;;;;3.45;72.22;97041.22;5072230;28;20105;-75
2022/02/01 10:17:09;;;;;;;9.60;3.05;;;;;;;3.49;71.61;97039.22;5075562;28;20073;-75
2022/02/01 10:19:48;;;;;;;11.43;2.70;;;;;;;3.46;71.00;97036.91;5076223;28;20060;-75
2022/02/01 10:22:15;;;;;;;8.45;2.42;;;;;;;3.47;72.31;97041.13;5076255;28;20055;-75
2022/02/01 10:24:43;;;;;;;7.18;2.28;;;;;;;3.42;72.32;97031.19;5075899;28;20407;-76
2022/02/01 10:27:14;;;;;;;12.40;2.53;;;;;;;3.42;72.02;97032.94;5075672;28;20052;-76
2022/02/01 10:29:58;;;;;;;5.75;2.30;;;;;;;3.42;72.73;97028.59;5076183;28;20040;-75
2022/02/01 10:32:36;;;;;;;8.73;2.50;;;;;;;3.45;71.53;97035.25;5077300;28;20048;-75
2022/02/01 10:35:23;;;;;;;12.15;2.25;;;;;;;3.46;71.09;97030.00;5077744;28;20052;-76
2022/02/01 10:38:00;;;;;;;6.78;2.35;;;;;;;3.50;72.00;97017.66;5077317;28;20667;-75
2022/02/01 10:40:38;;;;;;;6.10;2.30;;;;;;;3.58;71.81;97020.41;5077612;28;20052;-75
2022/02/01 10:43:25;;;;;;;8.52;2.33;;;;;;;3.80;71.58;97005.72;5077883;28;20055;-74
2022/02/01 10:45:55;;;;;;;6.95;2.33;;;;;;;3.97;71.27;97010.25;5077231;28;20064;-75
2022/02/01 10:48:24;;;;;;;7.35;2.85;;;;;;;4.03;70.53;97007.16;5076611;28;20592;-75
2022/02/01 10:51:02;;;;;;;11.15;2.60;;;;;;;4.02;70.13;97007.28;5077532;28;20052;-75
2022/02/01 10:53:30;;;;;;;26.77;3.83;;;;;;;3.98;70.41;97006.75;5076168;28;20497;-75
2022/02/01 10:55:59;;;;;;;7.57;2.50;;;;;;;4.01;71.59;97011.66;5075285;28;20544;-76
2022/02/01 10:58:27;;;;;;;9.05;2.53;;;;;;;4.12;70.55;97014.13;5075947;28;20060;-75
2022/02/01 11:00:55;;;;;;;8.02;2.53;;;;;;;4.10;70.85;97010.84;5075379;28;20048;-75
2022/02/01 11:03:23;;;;;;;12.13;3.00;;;;;;;4.03;71.06;97001.19;5075791;28;20041;-75
2022/02/01 11:05:55;;;;;;;9.23;2.63;;;;;;;4.00;70.76;96993.69;5075174;28;20091;-75
2022/02/01 11:08:27;;;;;;;7.70;2.15;;;;;;;3.97;71.65;96984.44;5075440;28;20059;-75
2022/02/01 11:10:56;;;;;;;10.20;3.27;;;;;;;3.98;72.08;96969.78;5074977;28;20052;-76
2022/02/01 11:13:25;;;;;;;8.32;2.30;;;;;;;4.10;72.29;96969.53;5074493;28;20067;-75
2022/02/01 11:15:57;;;;;;;10.10;3.13;;;;;;;4.18;71.88;96976.66;5074463;28;20051;-74
2022/02/01 11:18:26;;;;;;;10.57;2.38;;;;;;;4.32;70.94;96957.38;5074559;28;20521;-75
2022/02/01 11:21:09;;;;;;;8.82;2.50;;;;;;;4.31;70.94;96953.16;5074832;28;20053;-75
2022/02/01 11:23:45;;;;;;;5.97;2.38;;;;;;;4.27;71.70;96928.56;5068492;28;20044;-75
2022/02/01 11:26:21;;;;;;;6.20;2.65;;;;;;;4.26;71.79;96932.06;5054871;28;20542;-75
2022/02/01 11:29:13;;;;;;;8.15;2.42;;;;;;;4.20;70.97;96906.78;5055293;28;20053;-75
2022/02/01 11:31:43;;;;;;;6.80;2.03;;;;;;;4.18;71.69;96904.34;5054233;28;20049;-76
2022/02/01 11:34:19;;;;;;;8.15;1.90;;;;;;;4.12;71.21;96892.78;5054363;28;20747;-75
2022/02/01 11:36:56;;;;;;;8.90;2.15;;;;;;;4.04;72.18;96887.47;5054400;28;20060;-76
2022/02/01 11:39:24;;;;;;;7.00;2.20;;;;;;;4.02;71.91;96880.81;5054607;28;20049;-75
2022/02/01 11:41:53;;;;;;;8.43;1.70;;;;;;;3.98;71.73;96888.00;5056341;28;20060;-75
2022/02/01 11:44:23;;;;;;;6.78;2.35;;;;;;;3.95;71.76;96888.25;5057088;28;20482;-75
2022/02/01 11:47:07;;;;;;;5.85;1.65;;;;;;;3.92;72.06;96873.06;5055794;28;20080;-76
2022/02/01 11:49:35;;;;;;;4.07;1.40;;;;;;;3.89;71.31;96868.97;5056078;28;20056;-78
2022/02/01 11:52:11;;;;;;;6.10;1.80;;;;;;;3.83;71.24;96866.13;5054662;28;20041;-76
2022/02/01 11:54:40;;;;;;;3.50;1.42;;;;;;;3.82;72.46;96856.72;5053913;28;20049;-76
2022/02/01 11:57:13;;;;;;;5.18;1.75;;;;;;;3.81;72.55;96852.53;5057057;28;20041;-75
2022/02/01 11:59:54;;;;;;;;;;;;;;;3.81;73.11;96834.47;5074795;28;20067;-75
2022/02/01 12:02:32;;;;;;;7.32;1.80;;;;;;;3.75;71.96;96835.81;5074044;28;19927;-75
2022/02/01 12:05:13;;;;;;;5.30;1.52;;;;;;;3.71;72.67;96848.16;5074062;28;20503;-75
2022/02/01 12:07:52;;;;;;;3.08;1.50;;;;;;;3.70;72.23;96843.94;5073858;28;20457;-76
2022/02/01 12:10:21;;;;;;;5.10;2.58;;;;;;;3.70;71.34;96828.47;5073856;28;20437;-74
2022/02/01 12:12:58;;;;;;;8.63;2.20;;;;;;;3.67;71.95;96838.22;5071506;28;20581;-75
2022/02/01 12:15:27;;;;;;;3.35;1.40;;;;;;;3.64;71.94;96833.34;5056315;28;20044;-75
2022/02/01 12:18:06;;;;;;;4.43;1.52;;;;;;;3.63;72.41;96837.69;5073020;28;20508;-75
2022/02/01 12:20:36;;;;;;;3.20;1.30;;;;;;;3.64;72.67;96839.31;5073745;28;20536;-75
2022/02/01 12:23:18;;;;;;;5.28;1.77;;;;;;;3.62;72.81;96833.47;5073746;28;20091;-75
2022/02/01 12:25:46;;;;;;;5.95;1.60;;;;;;;3.60;72.36;96819.88;5073362;28;20052;-74
2022/02/01 12:28:16;;;;;;;4.68;1.60;;;;;;;3.59;72.84;96820.84;5073213;28;20049;-75
2022/02/01 12:30:49;;;;;;;5.60;1.70;;;;;;;3.58;72.64;96814.03;5073764;28;20049;-75
2022/02/01 12:33:19;;;;;;;6.88;1.40;;;;;;;3.59;72.17;96801.97;5073620;28;20080;-75
2022/02/01 12:35:50;;;;;;;3.67;1.33;;;;;;;3.60;72.63;96798.44;5073353;28;20060;-74
2022/02/01 12:38:22;;;;;;;4.93;1.50;;;;;;;3.61;72.86;96794.94;5073224;28;20468;-75
2022/02/01 12:40:56;;;;;;;7.03;2.28;;;;;;;3.58;70.62;96787.44;5073089;28;20056;-75
2022/02/01 12:43:27;;;;;;;4.97;1.58;;;;;;;3.57;71.59;96791.78;5073348;28;20044;-75
2022/02/01 12:46:01;;;;;;;7.90;1.85;;;;;;;3.58;72.25;96782.28;5073231;28;20161;-74
2022/02/01 12:48:29;;;;;;;10.32;1.63;;;;;;;3.58;72.27;96785.66;5073231;28;20044;-75
2022/02/01 12:50:58;;;;;;;19.15;2.95;;;;;;;3.58;71.83;96777.94;5073110;28;20048;-75
2022/02/01 12:53:28;;;;;;;6.00;1.70;;;;;;;3.60;72.24;96777.81;5073158;28;20041;-75
2022/02/01 12:55:57;;;;;;;4.32;1.63;;;;;;;3.61;71.47;96776.88;5073313;28;20515;-75
2022/02/01 12:58:24;;;;;;;6.80;2.00;;;;;;;3.59;71.66;96769.25;5072962;28;20044;-75
2022/02/01 13:00:53;;;;;;;6.30;1.58;;;;;;;3.59;70.98;96771.03;5073172;28;20048;-76
2022/02/01 13:03:22;;;;;;;5.68;1.55;;;;;;;3.56;71.24;96768.69;5072748;28;20049;-76
2022/02/01 13:05:57;;;;;;;7.13;2.45;;;;;;;3.52;71.55;96768.16;5072728;28;20058;-76